createdAt,value
2022-11-27T00:00:19.111Z,101916.38
2022-11-27T00:05:21.113Z,101914.66
2022-11-27T00:10:23.061Z,101913.00
2022-11-27T00:15:24.841Z,101906.81
2022-11-27T00:20:29.687Z,101894.28
2022-11-27T00:25:32.390Z,101890.53
2022-11-27T00:30:34.229Z,101894.28
2022-11-27T00:35:36.208Z,101905.72
2022-11-27T00:40:37.996Z,101896.13
2022-11-27T00:45:39.758Z,101896.78
2022-11-27T00:50:41.913Z,101893.19
2022-11-27T00:55:45.940Z,101885.44
2022-11-27T01:00:54.786Z,101886.16
2022-11-27T01:05:57.026Z,101874.81
2022-11-27T01:10:59.427Z,101870.59
2022-11-27T01:16:03.996Z,101858.53
2022-11-27T01:21:06.423Z,101844.50
2022-11-27T01:26:10.238Z,101840.13
2022-11-27T01:31:18.310Z,101850.94
2022-11-27T01:36:20.254Z,101853.53
2022-11-27T01:41:31.565Z,101842.91
2022-11-27T01:46:39.789Z,101858.94
2022-11-27T01:51:55.948Z,101848.19
2022-11-27T01:57:01.341Z,101836.75
2022-11-27T02:02:03.882Z,101816.19
2022-11-27T02:07:06.125Z,101824.34
2022-11-27T02:12:25.529Z,101822.75
2022-11-27T02:17:45.633Z,101813.81
2022-11-27T02:23:13.967Z,101805.06
2022-11-27T02:28:30.344Z,101798.66
2022-11-27T02:33:35.928Z,101785.50
2022-11-27T02:39:07.384Z,101749.38
2022-11-27T02:44:10.802Z,101725.44
2022-11-27T02:49:17.715Z,101747.53
2022-11-27T02:54:25.914Z,101735.19
2022-11-27T02:59:31.789Z,101726.28
2022-11-27T03:04:43.728Z,101714.88
2022-11-27T03:09:50.081Z,101714.19
2022-11-27T03:14:51.995Z,101715.91
2022-11-27T03:20:15.436Z,101710.53
2022-11-27T03:25:17.767Z,101714.91
2022-11-27T03:30:19.693Z,101722.00
2022-11-27T03:35:25.687Z,101720.31
2022-11-27T03:40:44.113Z,101722.88
2022-11-27T03:46:17.548Z,101713.16
2022-11-27T03:51:59.012Z,101703.44
2022-11-27T03:57:19.480Z,101699.91
2022-11-27T04:02:42.921Z,101701.72
2022-11-27T04:07:44.723Z,101706.94
2022-11-27T04:12:46.598Z,101701.72
2022-11-27T04:17:48.348Z,101693.56
2022-11-27T04:22:50.468Z,101680.47
2022-11-27T04:27:52.232Z,101681.25
2022-11-27T04:32:54.414Z,101675.28
2022-11-27T04:37:59.125Z,101676.06
2022-11-27T04:43:01.045Z,101683.13
2022-11-27T04:48:03.417Z,101679.56
2022-11-27T04:53:05.266Z,101688.44
2022-11-27T04:58:07.182Z,101684.84
2022-11-27T05:03:09.101Z,101688.44
2022-11-27T05:08:11.101Z,101686.66
2022-11-27T05:13:13.143Z,101677.72
2022-11-27T05:18:14.792Z,101667.13
2022-11-27T05:23:16.561Z,101663.56
2022-11-27T05:28:22.366Z,101654.97
2022-11-27T05:33:28.228Z,101608.75
2022-11-27T05:38:30.274Z,101598.13
2022-11-27T05:43:32.291Z,101579.59
2022-11-27T05:48:37.458Z,101582.31
2022-11-27T05:53:39.518Z,101590.31
2022-11-27T05:58:43.242Z,101595.53
2022-11-27T06:03:45.548Z,101610.63
2022-11-27T06:08:48.007Z,101590.22
2022-11-27T06:13:50.456Z,101591.19
2022-11-27T06:18:54.331Z,101593.88
2022-11-27T06:23:57.042Z,101569.06
2022-11-27T06:29:01.927Z,101563.00
2022-11-27T06:34:04.865Z,101555.69
2022-11-27T06:39:08.595Z,101550.50
2022-11-27T06:44:10.880Z,101548.75
2022-11-27T06:49:12.717Z,101538.09
2022-11-27T06:54:14.598Z,101543.44
2022-11-27T06:59:17.077Z,101539.06
2022-11-27T07:04:19.089Z,101563.78
2022-11-27T07:09:21.273Z,101552.25
2022-11-27T07:14:23.167Z,101553.03
2022-11-27T07:19:25.067Z,101545.19
2022-11-27T07:24:26.997Z,101548.03
2022-11-27T07:29:28.813Z,101544.25
2022-11-27T07:34:30.905Z,101536.50
2022-11-27T07:40:00.338Z,101525.63
2022-11-27T07:44:54.891Z,101522.13
2022-11-27T07:49:58.710Z,101516.13
2022-11-27T07:55:00.969Z,101494.72
2022-11-27T08:00:03.507Z,101487.06
2022-11-27T08:05:12.125Z,101492.22
2022-11-27T08:10:14.293Z,101494.31
2022-11-27T08:15:16.074Z,101501.31
2022-11-27T08:20:19.973Z,101495.34
2022-11-27T08:25:21.734Z,101500.44
2022-11-27T08:30:24.008Z,101506.69
2022-11-27T08:35:25.948Z,101501.19
2022-11-27T08:40:27.984Z,101482.41
2022-11-27T08:45:29.853Z,101470.13
2022-11-27T08:50:31.745Z,101473.47
2022-11-27T08:55:33.778Z,101463.22
2022-11-27T09:00:36.335Z,101454.25
2022-11-27T09:05:42.460Z,101460.28
2022-11-27T09:10:44.328Z,101451.34
2022-11-27T09:15:46.137Z,101439.81
2022-11-27T09:21:13.547Z,101437.53
2022-11-27T09:26:17.393Z,101424.06
2022-11-27T09:31:20.380Z,101423.53
2022-11-27T09:36:24.429Z,101414.59
2022-11-27T09:41:50.491Z,101413.66
2022-11-27T09:46:53.238Z,101411.66
2022-11-27T09:52:13.161Z,101415.81
2022-11-27T09:57:21.259Z,101411.84
2022-11-27T10:02:30.851Z,101405.41
2022-11-27T10:08:06.338Z,101388.38
2022-11-27T10:13:08.700Z,101387.47
2022-11-27T10:18:40.861Z,101381.31
2022-11-27T10:24:20.125Z,101366.47
2022-11-27T10:29:45.716Z,101369.13
2022-11-27T10:34:56.461Z,101362.97
2022-11-27T10:40:14.002Z,101359.50
2022-11-27T10:45:40.392Z,101351.78
2022-11-27T10:50:42.799Z,101344.84
2022-11-27T10:56:12.788Z,101331.34
2022-11-27T11:01:17.148Z,101324.06
2022-11-27T11:06:23.645Z,101314.31
2022-11-27T11:11:27.201Z,101302.75
2022-11-27T11:21:44.886Z,101287.75
2022-11-27T11:26:50.137Z,101283.28
2022-11-27T11:31:54.931Z,101276.31
2022-11-27T11:36:59.256Z,101255.91
2022-11-27T11:42:01.266Z,101249.78
2022-11-27T11:47:03.352Z,101241.78
2022-11-27T11:52:22.324Z,101242.78
2022-11-27T11:57:47.207Z,101247.28
2022-11-27T12:03:27.151Z,101226.91
2022-11-27T12:08:47.216Z,101208.06
2022-11-27T12:14:26.056Z,101206.31
2022-11-27T12:19:44.048Z,101187.94
2022-11-27T12:25:37.436Z,101173.81
2022-11-27T12:31:01.200Z,101150.75
2022-11-27T12:36:11.495Z,101152.97
2022-11-27T12:41:19.353Z,101136.66
2022-11-27T12:46:55.013Z,101130.66
2022-11-27T12:52:19.995Z,101134.81
2022-11-27T12:57:46.419Z,101122.66
2022-11-27T13:03:25.072Z,101115.44
2022-11-27T13:08:54.728Z,101126.78
2022-11-27T13:14:17.410Z,101123.56
2022-11-27T13:19:33.547Z,101117.41
2022-11-27T13:24:36.103Z,101102.25
2022-11-27T13:29:57.261Z,101091.81
2022-11-27T13:35:07.125Z,101094.28
2022-11-27T13:40:22.968Z,101086.31
2022-11-27T13:45:28.456Z,101067.00
2022-11-27T13:50:32.145Z,101073.91
2022-11-27T13:55:40.338Z,101072.31
2022-11-27T14:00:45.403Z,101076.72
2022-11-27T14:05:47.384Z,101062.41
2022-11-27T14:10:53.580Z,101022.53
2022-11-27T14:16:02.170Z,101036.72
2022-11-27T14:21:05.120Z,101042.78
2022-11-27T14:26:15.127Z,101064.09
2022-11-27T14:31:33.613Z,101056.97
2022-11-27T14:36:36.204Z,101053.22
2022-11-27T14:41:37.991Z,101039.75
2022-11-27T14:46:39.981Z,101030.00
2022-11-27T14:51:43.776Z,101031.03
2022-11-27T14:56:46.180Z,101035.69
2022-11-27T15:02:14.127Z,101026.06
2022-11-27T15:07:27.656Z,101024.22
2022-11-27T15:12:45.550Z,101019.81
2022-11-27T15:17:51.813Z,101005.25
2022-11-27T15:22:56.544Z,101006.50
2022-11-27T15:27:58.538Z,101002.84
2022-11-27T15:33:01.664Z,100997.94
2022-11-27T15:38:11.366Z,100987.09
2022-11-27T15:43:15.329Z,100987.09
2022-11-27T15:48:22.003Z,100983.97
2022-11-27T15:53:23.893Z,100970.97
2022-11-27T15:58:26.132Z,100979.91
2022-11-27T16:03:28.817Z,100955.06
2022-11-27T16:08:31.197Z,100947.00
2022-11-27T16:13:33.219Z,100939.03
2022-11-27T16:18:35.606Z,100924.66
2022-11-27T16:23:38.844Z,100912.34
2022-11-27T16:28:41.306Z,100909.69
2022-11-27T16:33:43.278Z,100899.78
2022-11-27T16:38:45.850Z,100883.97
2022-11-27T16:43:51.647Z,100866.19
2022-11-27T16:48:54.798Z,100868.41
2022-11-27T16:53:57.618Z,100872.34
2022-11-27T16:59:02.982Z,100849.09
2022-11-27T17:04:09.104Z,100846.66
2022-11-27T17:09:11.404Z,100839.66
2022-11-27T17:14:13.374Z,100850.19
2022-11-27T17:19:16.350Z,100845.88
2022-11-27T17:24:18.410Z,100837.13
2022-11-27T17:29:22.006Z,100845.03
2022-11-27T17:34:23.869Z,100827.97
2022-11-27T17:39:25.772Z,100815.78
2022-11-27T17:44:27.577Z,100809.69
2022-11-27T17:49:29.455Z,100796.75
2022-11-27T17:54:31.379Z,100792.50
2022-11-27T17:59:33.118Z,100777.81
2022-11-27T18:04:36.481Z,100778.63
2022-11-27T18:09:39.141Z,100776.41
2022-11-27T18:14:41.137Z,100777.88
2022-11-27T18:19:44.591Z,100763.28
2022-11-27T18:24:46.434Z,100751.59
2022-11-27T18:29:50.163Z,100747.88
2022-11-27T18:34:56.319Z,100735.81
2022-11-27T18:39:58.215Z,100722.41
2022-11-27T18:44:59.915Z,100708.38
2022-11-27T18:50:03.436Z,100707.19
2022-11-27T18:55:06.245Z,100699.31
2022-11-27T19:00:08.704Z,100694.59
2022-11-27T19:05:10.596Z,100686.84
2022-11-27T19:10:12.339Z,100683.91
2022-11-27T19:15:14.247Z,100687.63
2022-11-27T19:20:16.326Z,100691.00
2022-11-27T19:25:18.187Z,100683.31
2022-11-27T19:30:20.310Z,100681.88
2022-11-27T19:35:25.511Z,100675.06
2022-11-27T19:40:29.834Z,100671.00
2022-11-27T19:45:32.902Z,100670.50
2022-11-27T19:50:34.588Z,100655.91
2022-11-27T19:55:36.324Z,100646.53
2022-11-27T20:00:38.099Z,100637.44
2022-11-27T20:05:39.869Z,100618.44
2022-11-27T20:10:41.857Z,100615.78
2022-11-27T20:15:43.897Z,100622.50
2022-11-27T20:20:46.604Z,100607.34
2022-11-27T20:25:49.695Z,100599.88
2022-11-27T20:30:59.945Z,100592.25
2022-11-27T20:36:03.058Z,100598.31
2022-11-27T20:41:07.568Z,100606.03
2022-11-27T20:46:11.649Z,100595.47
2022-11-27T20:51:16.834Z,100574.31
2022-11-27T20:56:20.318Z,100578.59
2022-11-27T21:01:26.442Z,100578.84
2022-11-27T21:06:30.860Z,100569.06
2022-11-27T21:11:33.215Z,100560.56
2022-11-27T21:16:37.381Z,100554.00
2022-11-27T21:21:39.727Z,100547.91
2022-11-27T21:26:42.008Z,100548.38
2022-11-27T21:31:47.289Z,100538.91
2022-11-27T21:36:49.380Z,100523.00
2022-11-27T21:41:53.884Z,100528.13
2022-11-27T21:46:55.743Z,100512.41
2022-11-27T21:51:57.714Z,100511.63
2022-11-27T21:57:00.337Z,100513.88
2022-11-27T22:02:02.585Z,100500.84
2022-11-27T22:07:04.532Z,100497.34
2022-11-27T22:12:06.543Z,100490.06
2022-11-27T22:17:08.386Z,100478.59
2022-11-27T22:22:10.151Z,100491.72
2022-11-27T22:27:12.078Z,100485.13
2022-11-27T22:32:14.065Z,100470.66
2022-11-27T22:37:15.884Z,100473.31
2022-11-27T22:42:17.777Z,100464.56
2022-11-27T22:47:19.527Z,100465.09
2022-11-27T22:52:21.345Z,100464.19
2022-11-27T22:57:23.461Z,100458.09
2022-11-27T23:02:25.474Z,100453.25
2022-11-27T23:07:27.363Z,100443.47
2022-11-27T23:12:29.340Z,100435.75
2022-11-27T23:17:31.291Z,100447.56
2022-11-27T23:22:33.276Z,100441.06
2022-11-27T23:27:35.115Z,100439.75
2022-11-27T23:32:37.181Z,100431.94
2022-11-27T23:37:39.084Z,100434.75
2022-11-27T23:42:41.037Z,100426.81
2022-11-27T23:47:42.880Z,100425.72
2022-11-27T23:52:44.999Z,100413.44
2022-11-27T23:57:46.862Z,100415.41
